Time;durP1;ratioP1;P1;durP2;ratioP2;P2;SDS_P1;SDS_P2;PMS_P1;PMS_P2;Temp;Humidity;BMP_temperature;BMP_pressure;BME280_temperature;BME280_humidity;BME280_pressure;Samples;Min_cycle;Max_cycle;Signal;HPM_P1;HPM_P2
2022/05/27 00:00:20;;;;;;;;;;;;;;;11.32;100.00;96448.22;1022981;29;20407;-73
2022/05/27 00:00:51;;;;;;;;;;;;;;;11.34;100.00;96440.88;1022848;29;19934;-73
2022/05/27 00:01:26;;;;;;;;;;;;;;;11.35;100.00;96442.47;1021535;28;20353;-73
2022/05/27 00:01:59;;;;;;;;;;;;;;;11.36;100.00;96449.28;1030172;28;19957;-73
2022/05/27 00:02:29;;;;;;;;;;;;;;;11.36;100.00;96444.03;1030909;28;20009;-75
2022/05/27 00:03:00;;;;;;;;;;;;;;;11.36;100.00;96438.00;1032017;28;19922;-74
2022/05/27 00:03:30;;;;;;;;;;;;;;;11.33;100.00;96442.72;1034915;28;20745;-74
2022/05/27 00:04:01;;;;;;;;;;;;;;;11.33;100.00;96441.91;1030996;28;19914;-76
2022/05/27 00:04:31;;;;;;;;;;;;;;;11.31;100.00;96447.44;1034443;28;20008;-75
2022/05/27 00:05:02;;;;;;;;;;;;;;;11.33;100.00;96442.72;1034866;28;19917;-73
2022/05/27 00:05:33;;;;;;;;;;;;;;;11.32;100.00;96449.00;1030879;28;19918;-74
2022/05/27 00:06:03;;;;;;;;;;;;;;;11.32;100.00;96442.97;1030893;28;19922;-74
2022/05/27 00:06:36;;;;;;;;;;;;;;;11.30;100.00;96445.84;1022821;29;19919;-74
2022/05/27 00:07:06;;;;;;;;;;;;;;;11.31;100.00;96441.38;1022698;29;19922;-75
2022/05/27 00:07:37;;;;;;;;;;;;;;;11.31;100.00;96444.81;1023390;28;20038;-74
2022/05/27 00:08:08;;;;;;;;;;;;;;;11.30;100.00;96448.47;1023774;28;20033;-74
2022/05/27 00:08:38;;;;;;;;;;;;;;;11.26;100.00;96446.56;1030928;28;19992;-73
2022/05/27 00:09:09;;;;;;;;;;;;;;;11.25;100.00;96447.63;1030762;28;20291;-74
2022/05/27 00:09:39;;;;;;;;;;;;;;;11.25;100.00;96447.63;1030323;28;20375;-72
2022/05/27 00:10:10;;;;;;;;;;;;;;;11.26;100.00;96449.22;1030699;28;19918;-71
2022/05/27 00:10:40;;;;;;;;;;;;;;;11.26;100.00;96447.38;1026893;28;20518;-74
2022/05/27 00:11:13;;;;;;;;;;;;;;;11.24;100.00;96446.06;1035187;28;19957;-73
2022/05/27 00:11:44;;;;;;;;;;;;;;;11.22;100.00;96448.91;1038966;28;19935;-74
2022/05/27 00:12:14;;;;;;;;;;;;;;;11.21;100.00;96447.34;1039031;28;20350;-74
2022/05/27 00:12:44;;;;;;;;;;;;;;;11.20;100.00;96444.94;1034410;28;19948;-73
2022/05/27 00:13:15;;;;;;;;;;;;;;;11.20;100.00;96442.31;1034466;28;19925;-74
2022/05/27 00:13:45;;;;;;;;;;;;;;;11.19;100.00;96443.38;1034843;28;19921;-73
2022/05/27 00:14:15;;;;;;;;;;;;;;;11.17;100.00;96446.25;1035041;28;19921;-74
2022/05/27 00:14:46;;;;;;;;;;;;;;;11.18;100.00;96444.41;1030834;28;19921;-76
2022/05/27 00:15:16;;;;;;;;;;;;;;;11.18;100.00;96442.56;1022568;29;19922;-74
2022/05/27 00:15:46;;;;;;;;;;;;;;;11.16;100.00;96441.22;1022808;29;19994;-76
2022/05/27 00:16:17;;;;;;;;;;;;;;;11.16;100.00;96441.22;1022924;29;20275;-75
2022/05/27 00:16:47;;;;;;;;;;;;;;;11.14;100.00;96438.09;1022755;29;19954;-74
2022/05/27 00:17:17;;;;;;;;;;;;;;;11.12;100.00;96438.31;1020602;29;19919;-74
2022/05/27 00:17:48;;;;;;;;;;;;;;;11.12;100.00;96437.53;1023029;28;20378;-74
2022/05/27 00:18:18;;;;;;;;;;;;;;;11.13;100.00;96441.72;1026882;28;19957;-73
2022/05/27 00:18:48;;;;;;;;;;;;;;;11.11;100.00;96436.72;1034966;28;20383;-75
2022/05/27 00:19:19;;;;;;;;;;;;;;;11.12;100.00;96438.31;1034773;28;19913;-75
2022/05/27 00:19:49;;;;;;;;;;;;;;;11.09;100.00;96439.59;1026131;28;19910;-74
2022/05/27 00:20:20;;;;;;;;;;;;;;;11.09;100.00;96444.84;1026890;28;19922;-75
2022/05/27 00:20:50;;;;;;;;;;;;;;;11.07;100.00;96435.66;1022827;29;20427;-75
2022/05/27 00:21:23;;;;;;;;;;;;;;;11.05;100.00;96438.50;1021041;28;19918;-76
2022/05/27 00:21:54;;;;;;;;;;;;;;;11.04;100.00;96442.19;1026867;28;20383;-73
2022/05/27 00:22:24;;;;;;;;;;;;;;;11.01;100.00;96437.44;1027214;28;19922;-76
2022/05/27 00:22:55;;;;;;;;;;;;;;;11.01;100.00;96441.88;1027577;28;20328;-76
2022/05/27 00:23:25;;;;;;;;;;;;;;;10.99;100.00;96438.72;1030585;28;20004;-75
2022/05/27 00:23:55;;;;;;;;;;;;;;;10.95;100.00;96438.41;1018785;29;19938;-73
2022/05/27 00:24:25;;;;;;;;;;;;;;;10.97;100.00;96440.81;1018933;29;20346;-76
2022/05/27 00:24:56;;;;;;;;;;;;;;;10.93;100.00;96437.06;1020566;29;19978;-74
2022/05/27 00:25:27;;;;;;;;;;;;;;;10.91;100.00;96439.94;1018650;29;19923;-74
2022/05/27 00:25:57;;;;;;;;;;;;;;;10.88;100.00;96439.66;1030851;28;20137;-74
2022/05/27 00:26:27;;;;;;;;;;;;;;;10.87;100.00;96433.63;1030722;28;19918;-74
2022/05/27 00:26:58;;;;;;;;;;;;;;;10.86;100.00;96434.63;1026816;28;19950;-72
2022/05/27 00:27:28;;;;;;;;;;;;;;;10.84;100.00;96437.50;1033899;28;19918;-73
2022/05/27 00:27:59;;;;;;;;;;;;;;;10.84;100.00;96441.97;1034918;28;19922;-73
2022/05/27 00:28:29;;;;;;;;;;;;;;;10.80;100.00;96435.63;1030835;28;19929;-75
2022/05/27 00:29:02;;;;;;;;;;;;;;;10.77;100.00;96436.13;1030751;28;19970;-73
2022/05/27 00:29:32;;;;;;;;;;;;;;;10.75;100.00;96438.19;1026299;28;19922;-75
2022/05/27 00:30:03;;;;;;;;;;;;;;;10.72;100.00;96442.09;1026604;28;19981;-76
2022/05/27 00:30:33;;;;;;;;;;;;;;;10.69;100.00;96436.53;1027220;28;20411;-73
2022/05/27 00:31:05;;;;;;;;;;;;;;;10.68;100.00;96437.59;1030740;28;20026;-74
2022/05/27 00:31:35;;;;;;;;;;;;;;;10.66;100.00;96440.44;1030761;28;19988;-74
2022/05/27 00:32:06;;;;;;;;;;;;;;;10.65;100.00;96438.09;1026598;28;19968;-76
2022/05/27 00:32:38;;;;;;;;;;;;;;;10.63;100.00;96440.97;1026836;28;20518;-74
2022/05/27 00:33:09;;;;;;;;;;;;;;;10.62;100.00;96440.16;1023026;28;19918;-75
2022/05/27 00:33:40;;;;;;;;;;;;;;;10.62;100.00;96439.34;1027307;28;19914;-74
2022/05/27 00:34:10;;;;;;;;;;;;;;;10.62;100.00;96445.41;1034438;28;19921;-73
2022/05/27 00:34:40;;;;;;;;;;;;;;;10.62;100.00;96440.16;1035190;28;19921;-74
2022/05/27 00:35:12;;;;;;;;;;;;;;;10.60;100.00;96442.25;1038996;28;20038;-75
2022/05/27 00:35:42;;;;;;;;;;;;;;;10.64;100.00;96441.75;1034845;28;19917;-75
2022/05/27 00:36:12;;;;;;;;;;;;;;;10.61;100.00;96440.41;1030674;28;19997;-75
2022/05/27 00:36:43;;;;;;;;;;;;;;;10.59;100.00;96432.75;1030875;28;20390;-75
2022/05/27 00:37:14;;;;;;;;;;;;;;;10.59;100.00;96437.22;1030959;28;20411;-74
2022/05/27 00:37:44;;;;;;;;;;;;;;;10.57;100.00;96437.47;1025131;28;19957;-74
2022/05/27 00:38:15;;;;;;;;;;;;;;;10.54;100.00;96437.97;1029527;28;19989;-74
2022/05/27 00:38:45;;;;;;;;;;;;;;;10.54;100.00;96439.81;1030684;28;19922;-74
2022/05/27 00:39:15;;;;;;;;;;;;;;;10.53;100.00;96440.81;1022803;28;19922;-74
2022/05/27 00:39:45;;;;;;;;;;;;;;;10.52;100.00;96439.25;1026115;28;20442;-75
2022/05/27 00:40:19;;;;;;;;;;;;;;;10.50;100.00;96436.88;1027035;28;19932;-73
2022/05/27 00:40:49;;;;;;;;;;;;;;;10.51;100.00;96435.03;1030804;28;19917;-74
2022/05/27 00:41:20;;;;;;;;;;;;;;;10.48;100.00;96435.53;1034859;28;19917;-74
2022/05/27 00:41:50;;;;;;;;;;;;;;;10.49;100.00;96439.72;1034817;28;19921;-74
2022/05/27 00:42:22;;;;;;;;;;;;;;;10.48;100.00;96432.91;1026529;28;19922;-74
2022/05/27 00:42:52;;;;;;;;;;;;;;;10.47;100.00;96432.13;1018943;29;19915;-74
2022/05/27 00:43:23;;;;;;;;;;;;;;;10.47;100.00;96426.88;1021175;29;19923;-74
2022/05/27 00:43:53;;;;;;;;;;;;;;;10.46;100.00;96429.72;1019395;28;20420;-75
2022/05/27 00:44:24;;;;;;;;;;;;;;;10.45;100.00;96428.94;1022779;28;20037;-74
2022/05/27 00:44:54;;;;;;;;;;;;;;;10.44;100.00;96432.59;1030892;28;19918;-75
2022/05/27 00:45:24;;;;;;;;;;;;;;;10.45;100.00;96431.56;1030747;28;19926;-76
2022/05/27 00:45:59;;;;;;;;;;;;;;;10.44;100.00;96435.22;1032135;28;19997;-75
2022/05/27 00:46:30;;;;;;;;;;;;;;;10.42;100.00;96436.50;1022467;28;20025;-75
2022/05/27 00:47:19;;;;;;;;;;;;;;;10.43;100.00;96436.28;1022755;29;20436;-73
2022/05/27 00:47:55;;;;;;;;;;;;;;;10.44;100.00;96434.44;1022122;29;20002;-73
2022/05/27 00:48:25;;;;;;;;;;;;;;;10.43;100.00;96438.88;1029099;28;19976;-74
2022/05/27 00:48:59;;;;;;;;;;;;;;;10.44;100.00;96432.59;1034032;28;19915;-73
2022/05/27 00:49:29;;;;;;;;;;;;;;;10.43;100.00;96433.66;1031251;28;19922;-71
2022/05/27 00:50:01;;;;;;;;;;;;;;;10.43;100.00;96431.03;1026226;28;19910;-74
2022/05/27 00:50:32;;;;;;;;;;;;;;;10.45;100.00;96434.19;1030226;28;20752;-73
2022/05/27 00:51:04;;;;;;;;;;;;;;;10.44;100.00;96429.97;1027104;28;19937;-74
2022/05/27 00:51:34;;;;;;;;;;;;;;;10.42;100.00;96429.41;1026779;28;20012;-74
2022/05/27 00:52:05;;;;;;;;;;;;;;;10.44;100.00;96431.81;1026731;28;19922;-73
2022/05/27 00:52:37;;;;;;;;;;;;;;;10.42;100.00;96424.16;1027112;28;20008;-75
2022/05/27 00:53:08;;;;;;;;;;;;;;;10.43;100.00;96425.78;1025344;28;20009;-75
2022/05/27 00:53:40;;;;;;;;;;;;;;;10.45;100.00;96422.91;1022483;29;19918;-74
2022/05/27 00:54:13;;;;;;;;;;;;;;;10.41;100.00;96422.59;1019939;28;19927;-75
2022/05/27 00:54:43;;;;;;;;;;;;;;;10.38;100.00;96423.06;1023515;28;19965;-74
2022/05/27 00:55:20;;;;;;;;;;;;;;;10.37;100.00;96424.91;1027286;28;19924;-74
2022/05/27 00:55:52;;;;;;;;;;;;;;;10.41;100.00;96419.19;1020036;29;19919;-73
2022/05/27 00:56:23;;;;;;;;;;;;;;;10.40;100.00;96430.72;1022782;28;19910;-73
2022/05/27 00:56:54;;;;;;;;;;;;;;;10.41;100.00;96427.84;1018643;29;19923;-75
2022/05/27 00:57:26;;;;;;;;;;;;;;;10.36;100.00;96425.13;1025426;28;19990;-74
2022/05/27 00:57:56;;;;;;;;;;;;;;;10.35;100.00;96418.31;1026449;28;19918;-73
2022/05/27 00:58:34;;;;;;;;;;;;;;;10.34;100.00;96424.59;1023036;28;19918;-74
2022/05/27 00:59:05;;;;;;;;;;;;;;;10.33;100.00;96420.41;1026513;28;19961;-75
2022/05/27 00:59:44;;;;;;;;;;;;;;;10.32;100.00;96422.22;1026387;28;20012;-76
2022/05/27 01:00:16;;;;;;;;;;;;;;;10.30;100.00;96420.88;1026426;28;20423;-73
2022/05/27 01:00:46;;;;;;;;;;;;;;;10.28;100.00;96422.94;1032266;28;19922;-75
2022/05/27 01:01:17;;;;;;;;;;;;;;;10.27;100.00;96416.91;1034857;28;19913;-73
2022/05/27 01:01:47;;;;;;;;;;;;;;;10.28;100.00;96417.69;1030754;28;19922;-74
2022/05/27 01:02:17;;;;;;;;;;;;;;;10.31;100.00;96423.25;1022848;29;19915;-74
2022/05/27 01:02:48;;;;;;;;;;;;;;;10.29;100.00;96420.06;1022732;28;19926;-76
2022/05/27 01:03:18;;;;;;;;;;;;;;;10.32;100.00;96416.16;1022676;28;19930;-74
2022/05/27 01:03:48;;;;;;;;;;;;;;;10.31;100.00;96422.47;1022797;29;20300;-76
2022/05/27 01:04:19;;;;;;;;;;;;;;;10.31;100.00;96422.47;1026624;28;20364;-75
2022/05/27 01:04:49;;;;;;;;;;;;;;;10.30;100.00;96418.25;1030483;28;19948;-75
2022/05/27 01:05:20;;;;;;;;;;;;;;;10.32;100.00;96419.59;1030618;28;19976;-75
2022/05/27 01:05:50;;;;;;;;;;;;;;;10.31;100.00;96415.38;1034899;28;19925;-74
2022/05/27 01:06:20;;;;;;;;;;;;;;;10.29;100.00;96419.28;1034672;28;19925;-73
2022/05/27 01:06:51;;;;;;;;;;;;;;;10.27;100.00;96416.91;1030694;28;19937;-74
2022/05/27 01:07:21;;;;;;;;;;;;;;;10.28;100.00;96420.31;1030491;28;20032;-75
2022/05/27 01:07:58;;;;;;;;;;;;;;;10.31;100.00;96417.22;1026702;28;20363;-74
2022/05/27 01:08:29;;;;;;;;;;;;;;;10.33;100.00;96415.94;1025919;28;19918;-74
2022/05/27 01:08:59;;;;;;;;;;;;;;;10.36;100.00;96419.88;1026731;28;19940;-74
2022/05/27 01:09:29;;;;;;;;;;;;;;;10.39;100.00;96414.16;1027500;28;19961;-73
2022/05/27 01:10:00;;;;;;;;;;;;;;;10.36;100.00;96418.09;1030062;28;19917;-74
2022/05/27 01:10:31;;;;;;;;;;;;;;;10.40;100.00;96415.75;1034862;28;20016;-75
2022/05/27 01:11:11;;;;;;;;;;;;;;;10.36;100.00;96422.50;1026608;28;20443;-75
2022/05/27 01:11:57;;;;;;;;;;;;;;;10.36;100.00;96414.66;1018488;29;19919;-72
2022/05/27 01:12:47;;;;;;;;;;;;;;;10.40;100.00;96415.75;1018363;29;20447;-73
2022/05/27 01:13:20;;;;;;;;;;;;;;;10.44;100.00;96418.69;1025666;28;19925;-75
2022/05/27 01:13:53;;;;;;;;;;;;;;;10.37;100.00;96413.63;1030647;28;19918;-75
2022/05/27 01:14:37;;;;;;;;;;;;;;;10.35;100.00;96418.31;1029954;28;19953;-73
2022/05/27 01:15:14;;;;;;;;;;;;;;;10.35;100.00;96420.94;1030619;28;20447;-74
2022/05/27 01:15:44;;;;;;;;;;;;;;;10.33;100.00;96415.94;1029580;28;21800;-74
2022/05/27 01:16:24;;;;;;;;;;;;;;;10.35;100.00;96420.94;1026722;28;19918;-73
2022/05/27 01:17:05;;;;;;;;;;;;;;;10.30;100.00;96416.44;1029598;28;20375;-73
2022/05/27 01:17:35;;;;;;;;;;;;;;;10.29;100.00;96419.28;1025748;28;20321;-75
2022/05/27 01:18:20;;;;;;;;;;;;;;;10.28;100.00;96417.69;1031877;28;19924;-74
2022/05/27 01:20:18;;;;;;;;;;;;;;;10.25;100.00;96418.16;1029889;28;19924;-74
2022/05/27 01:20:51;;;;;;;;;;;;;;;10.25;100.00;96418.16;1029404;28;20303;-75
2022/05/27 01:21:30;;;;;;;;;;;;;;;10.23;100.00;96417.59;1025853;28;19924;-76
2022/05/27 01:22:11;;;;;;;;;;;;;;;10.24;100.00;96416.56;1026553;28;20001;-75
2022/05/27 01:23:00;;;;;;;;;;;;;;;10.24;100.00;96419.19;1025431;28;19914;-74
2022/05/27 01:23:32;;;;;;;;;;;;;;;10.26;100.00;96417.97;1034797;28;19921;-73
2022/05/27 01:24:32;;;;;;;;;;;;;;;10.27;100.00;96418.75;1034505;28;19913;-75
2022/05/27 01:25:13;;;;;;;;;;;;;;;10.26;100.00;96425.81;1023139;29;20417;-73
2022/05/27 01:26:03;;;;;;;;;;;;;;;10.27;100.00;96413.50;1015181;29;20010;-74
2022/05/27 01:26:42;;;;;;;;;;;;;;;10.25;100.00;96412.91;1015286;29;20278;-73
2022/05/27 01:27:15;;;;;;;;;;;;;;;10.25;100.00;96412.91;1027494;28;19918;-73
2022/05/27 01:28:08;;;;;;;;;;;;;;;10.28;100.00;96413.25;1035364;28;20483;-75
2022/05/27 01:28:46;;;;;;;;;;;;;;;10.27;100.00;96413.50;1027322;28;20006;-74
2022/05/27 01:29:19;;;;;;;;;;;;;;;10.24;100.00;96416.56;1031484;28;19913;-74
2022/05/27 01:29:58;;;;;;;;;;;;;;;10.26;100.00;96409.28;1026723;28;19918;-74
2022/05/27 01:30:33;;;;;;;;;;;;;;;10.28;100.00;96412.47;1025974;28;19921;-75
2022/05/27 01:31:04;;;;;;;;;;;;;;;10.28;100.00;96415.06;1025567;28;19914;-75
2022/05/27 01:31:34;;;;;;;;;;;;;;;10.29;100.00;96414.03;1029256;28;19973;-73
2022/05/27 01:32:08;;;;;;;;;;;;;;;10.29;100.00;96411.41;1031216;28;20511;-75
2022/05/27 01:32:46;;;;;;;;;;;;;;;10.28;100.00;96412.47;1025597;28;19992;-72
2022/05/27 01:33:19;;;;;;;;;;;;;;;10.30;100.00;96405.94;1027532;28;20455;-73
2022/05/27 01:33:55;;;;;;;;;;;;;;;10.33;100.00;96410.69;1019434;29;20002;-74
2022/05/27 01:34:45;;;;;;;;;;;;;;;10.32;100.00;96410.94;1022233;28;20615;-74
2022/05/27 01:35:20;;;;;;;;;;;;;;;10.30;100.00;96407.78;1027237;28;19918;-75
2022/05/27 01:35:51;;;;;;;;;;;;;;;10.32;100.00;96408.31;1031375;28;20540;-73
2022/05/27 01:36:25;;;;;;;;;;;;;;;10.33;100.00;96409.91;1034532;28;19924;-73
2022/05/27 01:37:08;;;;;;;;;;;;;;;10.30;100.00;96408.56;1035551;28;19917;-74
2022/05/27 01:37:57;;;;;;;;;;;;;;;10.28;100.00;96407.22;1033683;28;20012;-73
2022/05/27 01:38:30;;;;;;;;;;;;;;;10.28;100.00;96402.75;1034385;28;20015;-75
2022/05/27 01:39:10;;;;;;;;;;;;;;;10.25;100.00;96403.22;1031273;28;19906;-75
2022/05/27 01:39:42;;;;;;;;;;;;;;;10.27;100.00;96405.63;1030762;28;19949;-73
2022/05/27 01:40:22;;;;;;;;;;;;;;;10.29;100.00;96408.78;1023294;28;19914;-74
2022/05/27 01:41:08;;;;;;;;;;;;;;;10.28;100.00;96408.00;1022190;28;19918;-75
2022/05/27 01:41:38;;;;;;;;;;;;;;;10.29;100.00;96408.78;1022975;29;19918;-73
2022/05/27 01:42:10;;;;;;;;;;;;;;;10.31;100.00;96411.97;1025795;28;20390;-75
2022/05/27 01:42:55;;;;;;;;;;;;;;;10.31;100.00;96406.72;1025665;28;19925;-74
2022/05/27 01:43:28;;;;;;;;;;;;;;;10.33;100.00;96402.84;1023985;28;20013;-75
2022/05/27 01:44:05;;;;;;;;;;;;;;;10.36;100.00;96406.78;1025923;28;19933;-74
2022/05/27 01:44:43;;;;;;;;;;;;;;;10.35;100.00;96407.81;1027217;28;19914;-74
2022/05/27 01:45:16;;;;;;;;;;;;;;;10.37;100.00;96409.16;1031394;28;19991;-74
2022/05/27 01:45:55;;;;;;;;;;;;;;;10.43;100.00;96409.22;1027274;28;19918;-75
2022/05/27 01:46:36;;;;;;;;;;;;;;;10.46;100.00;96414.78;1018688;29;19923;-75
2022/05/27 01:47:06;;;;;;;;;;;;;;;10.46;100.00;96409.53;1022096;28;20574;-74
2022/05/27 01:47:42;;;;;;;;;;;;;;;10.48;100.00;96402.19;1019312;29;19962;-76
2022/05/27 01:48:12;;;;;;;;;;;;;;;10.51;100.00;96409.59;1023269;29;20017;-75
2022/05/27 01:49:01;;;;;;;;;;;;;;;10.53;100.00;96406.72;1023966;28;19914;-75
2022/05/27 01:49:33;;;;;;;;;;;;;;;10.56;100.00;96400.97;1023262;29;20001;-74
2022/05/27 01:50:06;;;;;;;;;;;;;;;10.57;100.00;96405.19;1028288;28;19919;-74
2022/05/27 01:50:36;;;;;;;;;;;;;;;10.57;100.00;96402.56;1027436;28;20485;-73
2022/05/27 01:51:08;;;;;;;;;;;;;;;10.60;100.00;96399.47;1027066;28;19969;-73
2022/05/27 01:51:59;;;;;;;;;;;;;;;10.60;100.00;96400.25;1025807;28;19919;-75
2022/05/27 01:52:31;;;;;;;;;;;;;;;10.63;100.00;96406.84;1023963;28;19930;-74
2022/05/27 01:53:01;;;;;;;;;;;;;;;10.63;100.00;96404.22;1027365;28;20013;-76
2022/05/27 01:53:34;;;;;;;;;;;;;;;10.66;100.00;96401.06;1026749;28;20062;-73
2022/05/27 01:54:05;;;;;;;;;;;;;;;10.66;100.00;96408.94;1022562;29;20292;-74
2022/05/27 01:54:35;;;;;;;;;;;;;;;10.68;100.00;96404.25;1023810;28;19914;-75
2022/05/27 01:55:10;;;;;;;;;;;;;;;10.72;100.00;96407.19;1031945;28;19921;-73
2022/05/27 01:55:41;;;;;;;;;;;;;;;10.72;100.00;96405.34;1032277;28;19921;-74
2022/05/27 01:56:14;;;;;;;;;;;;;;;10.76;100.00;96403.03;1031518;28;19917;-74
2022/05/27 01:56:52;;;;;;;;;;;;;;;10.78;100.00;96396.50;1027416;28;20016;-75
2022/05/27 01:57:25;;;;;;;;;;;;;;;10.82;100.00;96399.41;1028725;28;19910;-75
2022/05/27 01:57:57;;;;;;;;;;;;;;;10.82;100.00;96399.41;1031815;28;20492;-73
2022/05/27 01:58:31;;;;;;;;;;;;;;;10.83;100.00;96396.56;1027692;28;20009;-74
2022/05/27 01:59:03;;;;;;;;;;;;;;;10.86;100.00;96397.88;1025762;28;19925;-76
2022/05/27 01:59:52;;;;;;;;;;;;;;;10.87;100.00;96399.47;1023153;29;19918;-72
2022/05/27 02:00:23;;;;;;;;;;;;;;;10.90;100.00;96399.00;1023711;29;19915;-75
2022/05/27 02:00:53;;;;;;;;;;;;;;;10.93;100.00;96393.25;1022428;29;19919;-75
2022/05/27 02:01:25;;;;;;;;;;;;;;;10.94;100.00;96396.66;1022748;28;19923;-76
2022/05/27 02:02:15;;;;;;;;;;;;;;;10.96;100.00;96395.34;1024032;28;19918;-75
2022/05/27 02:03:12;;;;;;;;;;;;;;;10.97;100.00;96394.31;1028972;28;19928;-74
2022/05/27 02:03:50;;;;;;;;;;;;;;;10.99;100.00;96392.22;1021601;29;20419;-76
2022/05/27 02:04:22;;;;;;;;;;;;;;;10.99;100.00;96392.22;1025084;28;20644;-74
2022/05/27 02:04:59;;;;;;;;;;;;;;;11.00;100.00;96382.50;1027642;28;20686;-74
2022/05/27 02:05:51;;;;;;;;;;;;;;;10.99;100.00;96389.59;1023704;29;19925;-73
2022/05/27 02:06:21;;;;;;;;;;;;;;;10.99;100.00;96389.59;1025819;28;19925;-75
2022/05/27 02:06:54;;;;;;;;;;;;;;;11.00;100.00;96391.22;1027098;28;20008;-76
2022/05/27 02:07:37;;;;;;;;;;;;;;;11.01;100.00;96386.75;1022808;29;19914;-73
2022/05/27 02:08:34;;;;;;;;;;;;;;;10.99;100.00;96381.72;1019121;29;19919;-73
2022/05/27 02:09:18;;;;;;;;;;;;;;;10.99;100.00;96386.97;1012643;29;19920;-76
2022/05/27 02:09:56;;;;;;;;;;;;;;;10.99;100.00;96386.97;1026709;28;19915;-75
2022/05/27 02:10:31;;;;;;;;;;;;;;;11.00;100.00;96385.94;1031624;28;19922;-72
2022/05/27 02:11:11;;;;;;;;;;;;;;;11.00;100.00;96391.22;1028884;28;20351;-75
2022/05/27 02:11:41;;;;;;;;;;;;;;;10.99;100.00;96386.19;1022260;28;20483;-72
2022/05/27 02:12:17;;;;;;;;;;;;;;;10.99;100.00;96389.59;1021668;29;19919;-75
2022/05/27 02:12:48;;;;;;;;;;;;;;;10.99;100.00;96380.94;1018911;29;20001;-75
2022/05/27 02:13:19;;;;;;;;;;;;;;;10.99;100.00;96386.97;1016444;29;19915;-73
2022/05/27 02:13:50;;;;;;;;;;;;;;;10.97;100.00;96383.81;1019617;29;20415;-73
2022/05/27 02:14:40;;;;;;;;;;;;;;;10.96;100.00;96379.59;1020149;29;19922;-73
2022/05/27 02:15:14;;;;;;;;;;;;;;;10.97;100.00;96388.28;1023070;28;19919;-73
2022/05/27 02:15:47;;;;;;;;;;;;;;;10.96;100.00;96387.47;1034013;28;20433;-75
2022/05/27 02:16:22;;;;;;;;;;;;;;;10.98;100.00;96379.34;1027567;28;19922;-75
2022/05/27 02:16:55;;;;;;;;;;;;;;;10.97;100.00;96377.78;1029129;28;19914;-69
2022/05/27 02:17:27;;;;;;;;;;;;;;;10.97;100.00;96378.56;1031664;28;20639;-74
2022/05/27 02:18:09;;;;;;;;;;;;;;;10.96;100.00;96382.22;1030345;28;19936;-72
2022/05/27 02:18:40;;;;;;;;;;;;;;;10.97;100.00;96380.41;1031645;28;20411;-75
2022/05/27 02:19:11;;;;;;;;;;;;;;;10.96;100.00;96384.84;1031722;28;19920;-73
2022/05/27 02:19:42;;;;;;;;;;;;;;;10.96;100.00;96384.84;1026990;28;20494;-74
2022/05/27 02:20:28;;;;;;;;;;;;;;;10.96;100.00;96381.44;1019798;29;20522;-74
2022/05/27 02:21:03;;;;;;;;;;;;;;;10.97;100.00;96377.78;1022003;29;19910;-76
2022/05/27 02:21:35;;;;;;;;;;;;;;;10.97;100.00;96378.56;1019783;29;19914;-76
2022/05/27 02:22:07;;;;;;;;;;;;;;;10.97;100.00;96381.19;1023500;29;20017;-77
2022/05/27 02:22:41;;;;;;;;;;;;;;;10.98;100.00;96379.34;1020549;29;20606;-76
2022/05/27 02:23:14;;;;;;;;;;;;;;;10.97;100.00;96383.03;1024578;28;20016;-75
2022/05/27 02:23:54;;;;;;;;;;;;;;;10.95;100.00;96385.91;1023680;29;19906;-73
2022/05/27 02:24:26;;;;;;;;;;;;;;;10.96;100.00;96376.97;1025689;28;19922;-74
2022/05/27 02:25:00;;;;;;;;;;;;;;;10.95;100.00;96378.00;1021698;29;19911;-74
2022/05/27 02:25:30;;;;;;;;;;;;;;;10.97;100.00;96383.81;1019735;29;20005;-73
2022/05/27 02:26:02;;;;;;;;;;;;;;;10.96;100.00;96382.22;1020495;29;19910;-74
2022/05/27 02:26:33;;;;;;;;;;;;;;;10.96;100.00;96379.59;1020932;28;19949;-72
2022/05/27 02:27:06;;;;;;;;;;;;;;;10.96;100.00;96386.69;1020084;29;19918;-73
2022/05/27 02:27:55;;;;;;;;;;;;;;;10.97;100.00;96383.81;1015724;29;19915;-75
2022/05/27 02:28:34;;;;;;;;;;;;;;;10.98;100.00;96380.16;1019191;29;19970;-77
2022/05/27 02:29:06;;;;;;;;;;;;;;;10.97;100.00;96375.94;1027251;28;19961;-74
2022/05/27 02:29:37;;;;;;;;;;;;;;;10.97;100.00;96383.81;1028625;28;19914;-73
2022/05/27 02:30:08;;;;;;;;;;;;;;;10.97;100.00;96375.94;1028888;28;19993;-73
2022/05/27 02:30:40;;;;;;;;;;;;;;;10.98;100.00;96377.53;1027423;28;19932;-74
2022/05/27 02:31:14;;;;;;;;;;;;;;;10.96;100.00;96382.22;1024004;28;19910;-74
2022/05/27 02:31:47;;;;;;;;;;;;;;;10.97;100.00;96383.81;1027646;28;19917;-75
2022/05/27 02:32:25;;;;;;;;;;;;;;;10.97;100.00;96377.78;1028707;28;19910;-75
2022/05/27 02:35:09;;;;;;;;;;;;;;;10.99;100.00;96379.09;1022586;29;20432;-73
2022/05/27 02:35:40;;;;;;;;;;;;;;;10.98;100.00;96377.53;1025082;28;19926;-73
2022/05/27 02:36:11;;;;;;;;;;;;;;;10.98;100.00;96380.16;1022166;29;19914;-74
2022/05/27 02:36:52;;;;;;;;;;;;;;;10.99;100.00;96378.31;1022507;28;20333;-75
2022/05/27 02:37:26;;;;;;;;;;;;;;;11.00;100.00;96378.06;1025073;28;19907;-75
2022/05/27 02:37:57;;;;;;;;;;;;;;;11.00;100.00;96374.63;1025636;28;19918;-74
2022/05/27 02:38:28;;;;;;;;;;;;;;;10.99;100.00;96373.84;1023622;29;19986;-75
2022/05/27 02:39:01;;;;;;;;;;;;;;;10.97;100.00;96375.94;1023963;28;20372;-74
2022/05/27 02:39:31;;;;;;;;;;;;;;;10.98;100.00;96374.09;1020095;29;20097;-74
2022/05/27 02:40:03;;;;;;;;;;;;;;;10.99;100.00;96373.84;1019474;29;19918;-75
2022/05/27 02:40:36;;;;;;;;;;;;;;;10.98;100.00;96377.53;1019661;29;19919;-75
2022/05/27 02:41:21;;;;;;;;;;;;;;;10.89;100.00;96360.63;1023447;28;19923;-73
2022/05/27 02:42:02;;;;;;;;;;;;;;;11.01;100.00;96374.41;1026064;28;20250;-73
2022/05/27 02:42:44;;;;;;;;;;;;;;;11.02;100.00;96375.19;1023787;28;19921;-76
2022/05/27 02:43:20;;;;;;;;;;;;;;;11.02;100.00;96370.72;1027418;28;19925;-74
2022/05/27 02:43:53;;;;;;;;;;;;;;;11.01;100.00;96374.41;1027618;28;19925;-72
2022/05/27 02:44:39;;;;;;;;;;;;;;;10.99;100.00;96371.22;1027552;28;19914;-73
2022/05/27 02:45:13;;;;;;;;;;;;;;;10.97;100.00;96368.06;1026643;28;20618;-75
2022/05/27 02:46:02;;;;;;;;;;;;;;;10.95;100.00;96370.13;1025510;28;19953;-73
2022/05/27 02:46:32;;;;;;;;;;;;;;;10.97;100.00;96375.16;1023713;29;20009;-75
2022/05/27 02:47:23;;;;;;;;;;;;;;;10.96;100.00;96368.31;1025750;28;20347;-74
2022/05/27 02:48:01;;;;;;;;;;;;;;;10.96;100.00;96376.97;1020976;28;19922;-76
2022/05/27 02:48:32;;;;;;;;;;;;;;;10.98;100.00;96374.09;1034761;28;19910;-73
2022/05/27 02:49:15;;;;;;;;;;;;;;;10.98;100.00;96381.97;1027395;28;19914;-75
2022/05/27 02:49:51;;;;;;;;;;;;;;;10.99;100.00;96379.09;1026905;28;19976;-75
2022/05/27 02:50:23;;;;;;;;;;;;;;;10.98;100.00;96379.34;1026087;28;20001;-73
2022/05/27 02:50:58;;;;;;;;;;;;;;;10.97;100.00;96375.16;1032947;28;19918;-72
2022/05/27 02:51:43;;;;;;;;;;;;;;;10.88;100.00;96359.03;1031392;28;19920;-75
2022/05/27 02:52:13;;;;;;;;;;;;;;;10.99;100.00;96379.09;1030370;28;19917;-73
2022/05/27 02:52:48;;;;;;;;;;;;;;;11.00;100.00;96377.25;1031548;28;20347;-74
2022/05/27 02:53:20;;;;;;;;;;;;;;;10.99;100.00;96378.31;1029889;28;19918;-74
2022/05/27 02:54:11;;;;;;;;;;;;;;;11.00;100.00;96380.69;1034157;28;19914;-72
2022/05/27 02:54:43;;;;;;;;;;;;;;;11.01;100.00;96377.03;1027643;28;20024;-73
2022/05/27 02:55:13;;;;;;;;;;;;;;;11.00;100.00;96375.44;1027883;28;19922;-73
2022/05/27 02:55:53;;;;;;;;;;;;;;;11.00;100.00;96378.06;1031411;28;20407;-74
2022/05/27 02:56:27;;;;;;;;;;;;;;;11.00;100.00;96383.31;1028996;28;19996;-74
2022/05/27 02:57:00;;;;;;;;;;;;;;;11.00;100.00;96372.81;1026804;28;19914;-71
2022/05/27 02:57:32;;;;;;;;;;;;;;;11.00;100.00;96372.00;1031509;28;19914;-72
2022/05/27 02:58:02;;;;;;;;;;;;;;;11.01;100.00;96369.16;1027563;28;20368;-73
2022/05/27 02:58:33;;;;;;;;;;;;;;;11.03;100.00;96376.75;1020083;29;19962;-73
2022/05/27 02:59:03;;;;;;;;;;;;;;;11.03;100.00;96377.59;1023744;28;19918;-73